Time;durP1;ratioP1;P1;durP2;ratioP2;P2;SDS_P1;SDS_P2;PMS_P1;PMS_P2;Temp;Humidity;BMP_temperature;BMP_pressure;BME280_temperature;BME280_humidity;BME280_pressure;Samples;Min_cycle;Max_cycle;Signal;HPM_P1;HPM_P2
2023/12/12 00:01:34;;;;;;;20.23;1.75;;;9.30;99.90;;;;;;5000069;23;20479;-94
2023/12/12 00:03:35;;;;;;;10.23;2.00;;;9.30;99.90;;;;;;4976163;23;20600;-96
2023/12/12 00:05:39;;;;;;;7.05;1.85;;;9.30;99.90;;;;;;4977007;23;20176;-94
2023/12/12 00:07:40;;;;;;;11.70;2.83;;;9.40;99.90;;;;;;4975641;23;20168;-94
2023/12/12 00:09:41;;;;;;;13.93;2.17;;;9.50;99.90;;;;;;4999159;23;20155;-95
2023/12/12 00:11:41;;;;;;;8.57;2.85;;;9.50;99.90;;;;;;4975903;23;20160;-94
2023/12/12 00:13:42;;;;;;;16.88;2.35;;;9.50;99.90;;;;;;4975380;23;20192;-95
2023/12/12 00:15:43;;;;;;;10.40;1.60;;;9.50;99.90;;;;;;5000511;23;20186;-96
2023/12/12 00:17:44;;;;;;;7.57;1.80;;;9.40;99.90;;;;;;4999207;23;20236;-95
2023/12/12 00:19:45;;;;;;;11.50;1.45;;;9.30;99.90;;;;;;4999494;23;20156;-95
2023/12/12 00:21:46;;;;;;;19.23;2.17;;;9.30;99.90;;;;;;4999014;23;20200;-96
2023/12/12 00:23:47;;;;;;;10.98;2.65;;;9.20;99.90;;;;;;4975426;23;20611;-94
2023/12/12 00:25:48;;;;;;;11.95;2.05;;;9.10;99.90;;;;;;4998395;23;20172;-96
2023/12/12 00:27:49;;;;;;;15.13;1.80;;;9.00;99.90;;;;;;4998604;23;20641;-94
2023/12/12 00:29:49;;;;;;;10.10;1.33;;;9.10;99.90;;;;;;4975553;23;20156;-95
2023/12/12 00:31:50;;;;;;;4.25;1.45;;;9.10;99.90;;;;;;4998803;23;20160;-94
2023/12/12 00:33:51;;;;;;;9.65;1.40;;;9.10;99.90;;;;;;4975543;23;20260;-95
2023/12/12 00:35:52;;;;;;;9.18;1.65;;;9.20;99.90;;;;;;4975492;23;20492;-95
2023/12/12 00:37:53;;;;;;;12.00;2.35;;;9.30;99.90;;;;;;4975353;23;20183;-95
2023/12/12 00:39:54;;;;;;;15.48;1.98;;;9.40;99.90;;;;;;4975459;23;20160;-94
2023/12/12 00:41:55;;;;;;;7.03;1.42;;;9.30;99.90;;;;;;4998692;23;20167;-94
2023/12/12 00:43:55;;;;;;;5.65;0.98;;;9.40;99.90;;;;;;4998711;23;20649;-95
2023/12/12 00:45:56;;;;;;;4.40;1.13;;;9.40;99.90;;;;;;4975219;23;20176;-95
2023/12/12 00:47:57;;;;;;;12.15;2.00;;;9.40;99.90;;;;;;4998770;23;20148;-96
2023/12/12 00:49:58;;;;;;;14.10;1.75;;;9.20;99.90;;;;;;4975214;23;20192;-95
2023/12/12 00:52:00;;;;;;;4.70;1.48;;;9.20;99.90;;;;;;4999213;23;20163;-95
2023/12/12 00:54:01;;;;;;;13.60;1.70;;;9.10;99.90;;;;;;4975063;23;20257;-94
2023/12/12 00:56:03;;;;;;;6.72;1.33;;;9.20;99.90;;;;;;4998558;23;20152;-95
2023/12/12 00:58:05;;;;;;;8.32;1.13;;;9.20;99.90;;;;;;4975146;23;20160;-94
2023/12/12 01:00:07;;;;;;;12.25;2.33;;;9.10;99.90;;;;;;4975270;23;20194;-94
2023/12/12 01:02:08;;;;;;;8.77;2.33;;;9.10;99.90;;;;;;4975292;23;20171;-94
2023/12/12 01:04:09;;;;;;;6.47;1.88;;;9.20;99.90;;;;;;4975306;23;20519;-95
2023/12/12 01:06:20;;;;;;;14.38;1.90;;;9.20;99.90;;;;;;4998556;23;20156;-94
2023/12/12 01:08:21;;;;;;;6.75;1.35;;;9.20;99.90;;;;;;4975040;23;20160;-95
2023/12/12 01:10:22;;;;;;;12.52;1.65;;;9.20;99.90;;;;;;4998703;23;20598;-95
2023/12/12 01:12:25;;;;;;;22.00;2.00;;;9.20;99.90;;;;;;4998802;23;20532;-96
2023/12/12 01:14:26;;;;;;;8.20;1.35;;;9.30;99.90;;;;;;4998367;23;20255;-96
2023/12/12 01:16:27;;;;;;;14.27;1.15;;;9.20;99.90;;;;;;4975302;23;20231;-94
2023/12/12 01:18:28;;;;;;;18.75;1.90;;;9.20;99.90;;;;;;4975706;23;20175;-95
2023/12/12 01:20:29;;;;;;;11.60;2.33;;;9.20;99.90;;;;;;4998559;23;20606;-95
2023/12/12 01:22:29;;;;;;;9.38;1.45;;;9.20;99.90;;;;;;4998539;23;20496;-95
2023/12/12 01:24:30;;;;;;;19.27;1.42;;;9.20;99.90;;;;;;4998431;23;20239;-96
2023/12/12 01:26:31;;;;;;;8.73;1.67;;;9.30;99.90;;;;;;4998322;23;20200;-95
2023/12/12 01:28:32;;;;;;;13.05;2.35;;;9.30;99.90;;;;;;4975134;23;20157;-96
2023/12/12 01:30:33;;;;;;;6.88;1.63;;;9.40;99.90;;;;;;4975062;23;20548;-95
2023/12/12 01:32:34;;;;;;;18.38;2.00;;;9.40;99.90;;;;;;4998612;23;20160;-95
2023/12/12 01:34:35;;;;;;;6.13;1.30;;;9.40;99.90;;;;;;4975132;23;20693;-95
2023/12/12 01:36:36;;;;;;;5.43;1.70;;;9.50;99.90;;;;;;4998876;23;20151;-96
2023/12/12 01:38:37;;;;;;;5.03;1.40;;;9.40;99.90;;;;;;4974705;23;20175;-95
2023/12/12 01:40:38;;;;;;;9.13;1.75;;;9.50;99.90;;;;;;4997773;23;20567;-96
2023/12/12 01:42:39;;;;;;;7.55;1.48;;;9.60;99.90;;;;;;4974604;23;20200;-95
2023/12/12 01:44:40;;;;;;;12.02;2.80;;;9.70;99.90;;;;;;4974455;23;20179;-95
2023/12/12 01:46:43;;;;;;;13.60;2.33;;;9.90;99.90;;;;;;4974482;23;20308;-95
2023/12/12 01:48:44;;;;;;;7.78;1.42;;;10.00;99.90;;;;;;4974744;23;20160;-94
2023/12/12 01:50:45;;;;;;;17.98;1.88;;;10.20;99.90;;;;;;4974818;23;20212;-95
2023/12/12 01:52:46;;;;;;;8.52;1.63;;;10.30;99.90;;;;;;4974755;23;20727;-94
2023/12/12 01:54:49;;;;;;;9.52;1.50;;;10.30;99.90;;;;;;4997836;23;20174;-96
2023/12/12 01:56:52;;;;;;;9.20;1.58;;;10.40;99.90;;;;;;4998310;23;20653;-95
2023/12/12 01:58:54;;;;;;;6.97;1.55;;;10.40;99.90;;;;;;4974819;23;20673;-94
2023/12/12 02:00:56;;;;;;;10.55;1.25;;;10.40;99.90;;;;;;4997916;23;20162;-95
2023/12/12 02:02:57;;;;;;;6.40;2.05;;;10.30;99.90;;;;;;4998264;23;20208;-96
2023/12/12 02:04:58;;;;;;;18.70;2.45;;;10.30;99.90;;;;;;4998454;23;20183;-95
2023/12/12 02:07:02;;;;;;;12.18;2.08;;;10.30;99.90;;;;;;4974875;23;20161;-95
2023/12/12 02:09:04;;;;;;;10.52;2.05;;;10.20;99.90;;;;;;4998026;23;20271;-96
2023/12/12 02:11:05;;;;;;;19.95;1.95;;;10.20;99.90;;;;;;4974556;23;20156;-96
2023/12/12 02:13:06;;;;;;;12.82;1.70;;;10.30;99.90;;;;;;4997805;23;20531;-95
2023/12/12 02:15:07;;;;;;;6.40;0.90;;;10.20;99.90;;;;;;4974502;23;20183;-95
2023/12/12 02:17:08;;;;;;;5.63;1.65;;;10.10;99.90;;;;;;4974669;23;20175;-96
2023/12/12 02:19:09;;;;;;;8.48;1.02;;;9.90;99.90;;;;;;4998259;23;20160;-94
2023/12/12 02:21:18;;;;;;;11.18;2.63;;;9.60;99.90;;;;;;4974834;23;20297;-95
2023/12/12 02:23:19;;;;;;;9.10;2.20;;;9.70;99.90;;;;;;4974441;23;20473;-96
2023/12/12 02:25:20;;;;;;;15.50;1.58;;;9.70;99.90;;;;;;4974834;23;20200;-96
2023/12/12 02:27:21;;;;;;;8.65;1.10;;;9.60;99.90;;;;;;4998003;23;20152;-96
2023/12/12 02:29:22;;;;;;;5.10;1.27;;;9.60;99.90;;;;;;4974400;23;20160;-94
2023/12/12 02:31:23;;;;;;;8.50;2.63;;;9.60;99.90;;;;;;4997788;23;20219;-94
2023/12/12 02:33:24;;;;;;;6.45;1.30;;;9.60;99.90;;;;;;4974474;23;20678;-95
2023/12/12 02:35:24;;;;;;;4.90;1.08;;;9.50;99.90;;;;;;4997649;23;20232;-95
2023/12/12 02:37:25;;;;;;;5.25;1.20;;;9.50;99.90;;;;;;4974453;23;20184;-95
2023/12/12 02:39:26;;;;;;;8.80;1.75;;;9.50;99.90;;;;;;4974056;23;20227;-94
2023/12/12 02:41:27;;;;;;;16.13;1.60;;;9.60;99.90;;;;;;4974325;23;20205;-94
2023/12/12 02:43:28;;;;;;;16.70;1.08;;;9.70;99.90;;;;;;4997463;23;20592;-95
2023/12/12 02:45:29;;;;;;;8.45;1.08;;;9.80;99.90;;;;;;4997692;23;20674;-96
2023/12/12 02:47:30;;;;;;;5.18;0.60;;;9.70;99.90;;;;;;4974411;23;20169;-94
2023/12/12 02:49:31;;;;;;;6.30;1.40;;;9.60;99.90;;;;;;4974227;23;20156;-94
2023/12/12 02:51:32;;;;;;;9.75;1.13;;;9.80;99.90;;;;;;4974174;23;20205;-96
2023/12/12 02:53:33;;;;;;;9.80;1.65;;;10.10;99.90;;;;;;4997622;23;20199;-96
2023/12/12 02:55:34;;;;;;;6.40;0.98;;;10.10;99.90;;;;;;4973870;23;20232;-95
2023/12/12 02:57:35;;;;;;;16.20;1.92;;;10.30;99.90;;;;;;4974000;23;20584;-96
2023/12/12 02:59:35;;;;;;;7.13;1.40;;;10.30;99.90;;;;;;4997836;23;20184;-95
2023/12/12 03:01:36;;;;;;;12.55;1.83;;;10.30;99.90;;;;;;5021354;23;20205;-96
2023/12/12 03:03:39;;;;;;;3.78;1.15;;;10.40;99.90;;;;;;4974520;23;20197;-96
2023/12/12 03:05:40;;;;;;;15.73;1.63;;;10.40;99.90;;;;;;4974152;23;20236;-94
2023/12/12 03:07:40;;;;;;;6.65;2.05;;;10.40;99.90;;;;;;4997482;23;20156;-95
2023/12/12 03:09:41;;;;;;;14.15;2.40;;;10.40;99.90;;;;;;4997625;23;20187;-95
2023/12/12 03:11:42;;;;;;;15.55;2.40;;;10.30;99.90;;;;;;4974244;23;20171;-95
2023/12/12 03:13:43;;;;;;;11.57;1.58;;;10.30;99.90;;;;;;4974032;23;20950;-95
2023/12/12 03:15:44;;;;;;;11.80;1.67;;;10.30;99.90;;;;;;4997741;23;20179;-96
2023/12/12 03:17:45;;;;;;;11.18;1.67;;;10.40;99.90;;;;;;4974184;23;20229;-94
2023/12/12 03:19:46;;;;;;;11.57;2.13;;;10.50;99.90;;;;;;4974027;23;20163;-95
2023/12/12 03:21:46;;;;;;;12.75;1.45;;;10.50;99.90;;;;;;4997680;23;20163;-95
2023/12/12 03:23:47;;;;;;;11.55;2.55;;;10.40;99.90;;;;;;4973937;23;20180;-96
2023/12/12 03:25:48;;;;;;;13.40;2.85;;;10.20;99.90;;;;;;4997466;23;20181;-95
2023/12/12 03:27:49;;;;;;;6.28;1.55;;;10.00;99.90;;;;;;4973876;23;20231;-95
2023/12/12 03:29:50;;;;;;;7.80;1.45;;;10.00;99.90;;;;;;4974413;23;20164;-93
2023/12/12 03:31:51;;;;;;;8.20;1.10;;;9.70;99.90;;;;;;4974354;23;20235;-94
2023/12/12 03:33:52;;;;;;;7.40;1.05;;;9.70;99.90;;;;;;4973986;23;20203;-94
2023/12/12 03:35:53;;;;;;;10.55;1.48;;;9.60;99.90;;;;;;4973957;23;20180;-95
2023/12/12 03:37:53;;;;;;;15.45;1.92;;;9.60;99.90;;;;;;4998371;23;20243;-94
2023/12/12 03:39:54;;;;;;;11.85;1.45;;;9.50;99.90;;;;;;4974238;23;20152;-94
2023/12/12 03:41:55;;;;;;;3.53;1.17;;;9.60;99.90;;;;;;4997762;23;20217;-95
2023/12/12 03:43:56;;;;;;;17.73;1.55;;;9.60;99.90;;;;;;4997413;23;20160;-94
2023/12/12 03:45:57;;;;;;;12.48;1.90;;;9.60;99.90;;;;;;4973932;23;20495;-94
2023/12/12 03:47:58;;;;;;;8.60;1.27;;;9.50;99.90;;;;;;4975121;23;20156;-94
2023/12/12 03:49:58;;;;;;;5.78;1.65;;;9.30;99.90;;;;;;4997624;23;20259;-95
2023/12/12 03:51:59;;;;;;;5.43;1.33;;;9.40;99.90;;;;;;4974076;23;20173;-94
2023/12/12 03:54:00;;;;;;;6.28;1.88;;;9.50;99.90;;;;;;4997480;23;20191;-95
2023/12/12 03:56:01;;;;;;;15.35;1.73;;;9.70;99.90;;;;;;4997461;23;20246;-96
2023/12/12 03:58:03;;;;;;;9.15;1.85;;;9.90;99.90;;;;;;4973996;23;20191;-94
2023/12/12 04:00:07;;;;;;;14.35;1.38;;;10.00;99.90;;;;;;4973756;23;20160;-95
2023/12/12 04:02:13;;;;;;;11.80;1.88;;;10.10;99.90;;;;;;4998501;23;20183;-94
2023/12/12 04:04:14;;;;;;;11.30;1.92;;;10.10;99.90;;;;;;4973902;23;20156;-95
2023/12/12 04:06:15;;;;;;;4.55;1.30;;;10.20;99.90;;;;;;4974484;23;20153;-95
2023/12/12 04:08:16;;;;;;;7.38;1.42;;;10.10;99.90;;;;;;4997655;23;20158;-95
2023/12/12 04:10:18;;;;;;;9.93;2.30;;;10.20;99.90;;;;;;4997336;23;20151;-95
2023/12/12 04:12:19;;;;;;;7.93;1.50;;;10.00;99.90;;;;;;4974128;23;20145;-94
2023/12/12 04:14:19;;;;;;;6.68;1.50;;;10.00;99.90;;;;;;4997357;23;20197;-95
2023/12/12 04:16:20;;;;;;;12.27;2.30;;;9.70;99.90;;;;;;4973925;23;20152;-95
2023/12/12 04:18:21;;;;;;;3.30;1.17;;;9.60;99.90;;;;;;4997183;23;20488;-94
2023/12/12 04:20:22;;;;;;;9.07;2.25;;;9.70;99.90;;;;;;4974195;23;20240;-95
2023/12/12 04:22:23;;;;;;;6.47;1.27;;;9.60;99.90;;;;;;4974084;23;20160;-95
2023/12/12 04:24:24;;;;;;;22.77;2.22;;;9.60;99.90;;;;;;4997226;23;20244;-95
2023/12/12 04:26:29;;;;;;;6.57;1.88;;;9.50;99.90;;;;;;4974100;23;20157;-95
2023/12/12 04:28:30;;;;;;;8.10;1.48;;;9.60;99.90;;;;;;4997111;23;20156;-95
2023/12/12 04:30:31;;;;;;;8.15;1.55;;;9.50;99.90;;;;;;4973739;23;20161;-95
2023/12/12 04:32:32;;;;;;;3.47;1.15;;;9.60;99.90;;;;;;4973957;23;20164;-95
2023/12/12 04:34:34;;;;;;;5.88;0.80;;;9.70;99.90;;;;;;4973810;23;20187;-95
2023/12/12 04:36:34;;;;;;;12.43;2.22;;;9.80;99.90;;;;;;4973997;23;20175;-94
2023/12/12 04:38:35;;;;;;;7.90;1.30;;;9.90;99.90;;;;;;4973854;23;20171;-95
2023/12/12 04:40:36;;;;;;;9.98;1.83;;;9.90;99.90;;;;;;4997802;23;20171;-96
2023/12/12 04:42:37;;;;;;;13.07;2.63;;;10.00;99.90;;;;;;4973721;23;20525;-95
2023/12/12 04:44:43;;;;;;;6.80;1.45;;;10.00;99.90;;;;;;4997370;23;20203;-96
2023/12/12 04:46:44;;;;;;;9.23;1.33;;;10.10;99.90;;;;;;4998609;23;20159;-94
2023/12/12 04:48:45;;;;;;;4.53;1.27;;;10.20;99.90;;;;;;4975579;23;20152;-95
2023/12/12 04:50:46;;;;;;;10.27;1.25;;;10.10;99.90;;;;;;4975377;23;20167;-96
2023/12/12 04:52:47;;;;;;;8.02;0.65;;;10.00;99.90;;;;;;4975271;23;20618;-94
2023/12/12 04:54:48;;;;;;;5.88;1.17;;;9.90;99.90;;;;;;4974743;23;20677;-95
2023/12/12 04:56:49;;;;;;;15.05;1.60;;;9.90;99.90;;;;;;4974981;23;20184;-95
2023/12/12 04:58:50;;;;;;;8.55;1.77;;;9.90;99.90;;;;;;4974891;23;20650;-94
2023/12/12 05:00:50;;;;;;;10.25;2.10;;;10.00;99.90;;;;;;4998642;23;20587;-96
2023/12/12 05:02:51;;;;;;;6.57;1.15;;;10.00;99.90;;;;;;4975280;23;20648;-96
2023/12/12 05:04:52;;;;;;;11.50;1.58;;;10.10;99.90;;;;;;4975038;23;20180;-96
2023/12/12 05:06:53;;;;;;;9.05;2.03;;;10.20;99.90;;;;;;4975148;23;20156;-96
2023/12/12 05:08:54;;;;;;;11.27;1.50;;;10.20;99.90;;;;;;4974747;23;20156;-95
2023/12/12 05:10:55;;;;;;;16.30;1.75;;;10.10;99.90;;;;;;4975206;23;20156;-96
2023/12/12 05:12:56;;;;;;;2.17;0.90;;;10.10;99.90;;;;;;4998552;23;20295;-95
2023/12/12 05:14:56;;;;;;;10.35;1.65;;;10.30;99.90;;;;;;4998430;23;20212;-96
2023/12/12 05:16:57;;;;;;;6.72;1.48;;;10.40;99.90;;;;;;4975193;23;20175;-94
2023/12/12 05:18:59;;;;;;;8.45;1.88;;;10.50;99.90;;;;;;4998397;23;20191;-94
2023/12/12 05:21:00;;;;;;;11.05;1.40;;;10.50;99.90;;;;;;4975196;23;20227;-94
2023/12/12 05:23:01;;;;;;;5.50;1.73;;;10.50;99.90;;;;;;4974887;23;20152;-96
2023/12/12 05:25:02;;;;;;;5.68;1.50;;;10.40;99.90;;;;;;4998433;23;20227;-96
2023/12/12 05:27:03;;;;;;;9.93;1.05;;;10.30;99.90;;;;;;4974679;23;20153;-94
2023/12/12 05:29:04;;;;;;;6.25;1.20;;;10.40;99.90;;;;;;4998180;23;20612;-95
2023/12/12 05:31:06;;;;;;;10.85;1.50;;;10.30;99.90;;;;;;4975179;23;20156;-95
2023/12/12 05:33:07;;;;;;;3.15;1.00;;;10.30;99.90;;;;;;4998367;23;20183;-95
2023/12/12 05:35:08;;;;;;;6.25;1.30;;;10.30;99.90;;;;;;4974666;23;20191;-95
2023/12/12 05:37:09;;;;;;;5.07;0.98;;;10.40;99.90;;;;;;4998444;23;20611;-96
2023/12/12 05:39:10;;;;;;;6.22;1.65;;;10.60;99.90;;;;;;4974949;23;20240;-95
2023/12/12 05:41:11;;;;;;;11.50;1.40;;;10.70;99.90;;;;;;4998435;23;20163;-96
2023/12/12 05:43:11;;;;;;;4.95;1.13;;;10.70;99.90;;;;;;4974921;23;20164;-96
2023/12/12 05:45:12;;;;;;;4.22;1.20;;;10.80;99.90;;;;;;4998057;23;20254;-95
2023/12/12 05:47:13;;;;;;;8.10;1.70;;;10.70;99.90;;;;;;4975182;23;20221;-95
2023/12/12 05:49:14;;;;;;;9.18;2.17;;;10.60;99.90;;;;;;4975081;23;20167;-96
2023/12/12 05:51:15;;;;;;;8.48;1.65;;;10.60;99.90;;;;;;4974611;23;20161;-95
2023/12/12 05:53:16;;;;;;;7.90;2.03;;;10.70;99.90;;;;;;4974704;23;20195;-95
2023/12/12 05:55:17;;;;;;;3.05;1.88;;;10.70;99.90;;;;;;4974643;23;20176;-94
2023/12/12 05:57:18;;;;;;;2.60;1.20;;;10.60;99.90;;;;;;4998040;23;20151;-95
2023/12/12 05:59:19;;;;;;;8.25;1.13;;;10.60;99.90;;;;;;4974769;23;20485;-95
2023/12/12 06:01:21;;;;;;;8.20;1.70;;;10.70;99.90;;;;;;4975104;23;20251;-95
2023/12/12 06:03:22;;;;;;;1.80;1.00;;;10.80;99.90;;;;;;4974656;23;20260;-95
2023/12/12 06:05:23;;;;;;;10.48;2.05;;;10.70;99.90;;;;;;4998265;23;20180;-94
2023/12/12 06:07:24;;;;;;;7.53;1.33;;;10.90;99.90;;;;;;4998323;23;20194;-94
2023/12/12 06:09:25;;;;;;;12.75;2.88;;;11.00;99.90;;;;;;4974681;23;20156;-95
2023/12/12 06:11:26;;;;;;;6.38;1.40;;;11.00;99.90;;;;;;4974983;23;20619;-96
2023/12/12 06:13:28;;;;;;;7.97;1.30;;;11.10;99.90;;;;;;4974513;23;20199;-95
2023/12/12 06:15:29;;;;;;;4.40;1.25;;;10.90;99.90;;;;;;4997771;23;20176;-95
2023/12/12 06:17:30;;;;;;;4.35;0.70;;;11.00;99.90;;;;;;4974274;23;20504;-96
2023/12/12 06:19:31;;;;;;;10.68;1.27;;;11.00;99.90;;;;;;4997593;23;20650;-95
2023/12/12 06:21:33;;;;;;;12.00;2.13;;;10.80;99.90;;;;;;4974153;23;20496;-94
2023/12/12 06:23:34;;;;;;;9.52;1.95;;;10.80;99.90;;;;;;4974097;23;20469;-95
2023/12/12 06:25:35;;;;;;;13.05;1.42;;;10.90;99.90;;;;;;4974607;23;20179;-94
2023/12/12 06:27:35;;;;;;;5.88;1.15;;;10.70;99.90;;;;;;4997938;23;20168;-95
2023/12/12 06:29:36;;;;;;;7.20;1.50;;;10.80;99.90;;;;;;4974525;23;20634;-95
2023/12/12 06:31:38;;;;;;;5.05;1.50;;;10.80;99.90;;;;;;4997572;23;20167;-94
2023/12/12 06:33:39;;;;;;;4.95;1.25;;;10.80;99.90;;;;;;4997536;23;20189;-94
2023/12/12 06:35:40;;;;;;;7.53;1.38;;;10.80;99.90;;;;;;4974211;23;20604;-94
2023/12/12 06:37:42;;;;;;;5.03;1.60;;;10.90;99.90;;;;;;4974406;23;20152;-94
2023/12/12 06:39:43;;;;;;;6.82;1.48;;;10.70;99.90;;;;;;4974270;23;20220;-95
2023/12/12 06:41:44;;;;;;;4.05;1.02;;;10.70;99.90;;;;;;4974201;23;20481;-95
2023/12/12 06:43:45;;;;;;;4.55;1.23;;;10.60;99.90;;;;;;4997632;23;20204;-94
2023/12/12 06:45:46;;;;;;;5.10;1.33;;;10.50;99.90;;;;;;4973953;23;20619;-95
2023/12/12 06:47:47;;;;;;;10.93;1.60;;;10.60;99.90;;;;;;4997956;23;20163;-94
2023/12/12 06:49:48;;;;;;;10.30;2.65;;;10.50;99.90;;;;;;4974430;23;20687;-95
2023/12/12 06:51:49;;;;;;;6.50;0.90;;;10.40;99.90;;;;;;4998121;23;20160;-95
2023/12/12 06:53:52;;;;;;;14.35;1.85;;;10.50;99.90;;;;;;4997691;23;20191;-94
2023/12/12 06:55:53;;;;;;;6.97;1.65;;;10.70;99.90;;;;;;4997548;23;20251;-94
2023/12/12 06:57:54;;;;;;;7.50;1.10;;;10.70;99.90;;;;;;4974390;23;20183;-95
2023/12/12 06:59:55;;;;;;;4.20;1.00;;;10.60;99.90;;;;;;4974264;23;20251;-94
2023/12/12 07:01:56;;;;;;;5.07;1.30;;;10.30;99.90;;;;;;4974545;23;20160;-96
2023/12/12 07:03:57;;;;;;;9.18;1.58;;;10.30;99.90;;;;;;4974233;23;20163;-95
2023/12/12 07:05:58;;;;;;;7.25;1.50;;;10.40;99.90;;;;;;4974534;23;20179;-91
2023/12/12 07:08:02;;;;;;;3.10;1.55;;;10.30;99.90;;;;;;4974160;23;20159;-95
2023/12/12 07:10:06;;;;;;;10.57;2.10;;;10.40;99.90;;;;;;4974307;23;20177;-94
2023/12/12 07:12:07;;;;;;;6.07;1.63;;;10.40;99.90;;;;;;4997685;23;20152;-94
2023/12/12 07:14:08;;;;;;;2.42;1.35;;;10.70;99.90;;;;;;4973840;23;20195;-95
2023/12/12 07:16:12;;;;;;;5.75;1.25;;;10.70;99.90;;;;;;4997683;23;20158;-94
2023/12/12 07:18:14;;;;;;;5.07;1.63;;;10.70;99.90;;;;;;4973957;23;20152;-94
2023/12/12 07:20:15;;;;;;;2.08;1.30;;;10.60;99.90;;;;;;4974199;23;20167;-95
2023/12/12 07:22:15;;;;;;;11.23;1.17;;;10.40;99.90;;;;;;4974475;23;20161;-94
2023/12/12 07:24:17;;;;;;;4.05;1.55;;;10.20;99.90;;;;;;4997514;23;20713;-95
2023/12/12 07:26:21;;;;;;;4.65;1.40;;;10.10;99.90;;;;;;4973936;23;20514;-94
2023/12/12 07:28:23;;;;;;;4.45;1.48;;;10.30;99.90;;;;;;4973810;23;20183;-95
2023/12/12 07:30:24;;;;;;;3.15;1.50;;;10.30;99.90;;;;;;4974041;23;20595;-94
2023/12/12 07:32:26;;;;;;;2.97;1.33;;;10.40;99.90;;;;;;4973748;23;20220;-93
2023/12/12 07:34:28;;;;;;;3.15;1.85;;;10.40;99.90;;;;;;4997253;23;20196;-95
2023/12/12 07:36:29;;;;;;;4.03;1.73;;;10.40;99.90;;;;;;4974387;23;20220;-95
2023/12/12 07:38:29;;;;;;;2.95;1.40;;;10.60;99.90;;;;;;4973936;23;20156;-95
2023/12/12 07:40:30;;;;;;;3.33;1.60;;;10.60;99.90;;;;;;4973989;23;20152;-94
2023/12/12 07:42:31;;;;;;;6.00;2.17;;;10.50;99.90;;;;;;4997355;23;20163;-95
2023/12/12 07:44:32;;;;;;;4.60;1.50;;;10.40;99.90;;;;;;4973805;23;20200;-95
2023/12/12 07:46:39;;;;;;;3.97;1.17;;;10.30;99.90;;;;;;4973819;23;20239;-94
2023/12/12 07:48:40;;;;;;;3.75;1.30;;;10.40;99.90;;;;;;4974102;23;20158;-94
2023/12/12 07:50:41;;;;;;;2.75;1.83;;;10.40;99.90;;;;;;4997304;23;20151;-93
2023/12/12 07:52:42;;;;;;;3.17;1.13;;;10.50;99.90;;;;;;4973807;23;20160;-94
2023/12/12 07:54:43;;;;;;;2.25;1.13;;;10.40;99.90;;;;;;4973924;23;20180;-94
2023/12/12 07:56:44;;;;;;;3.28;1.63;;;10.40;99.90;;;;;;4973914;23;20579;-95
2023/12/12 07:58:45;;;;;;;2.92;1.75;;;10.50;99.90;;;;;;4974111;23;20156;-94
2023/12/12 08:00:46;;;;;;;2.45;1.08;;;10.60;99.90;;;;;;4997016;23;20155;-94
2023/12/12 08:02:46;;;;;;;3.05;1.60;;;10.60;99.90;;;;;;4973856;23;20161;-94
2023/12/12 08:04:47;;;;;;;4.13;1.40;;;10.80;99.90;;;;;;4973733;23;20231;-94
2023/12/12 08:06:48;;;;;;;2.72;1.80;;;11.00;99.90;;;;;;4973641;23;20549;-94
2023/12/12 08:08:49;;;;;;;3.42;1.35;;;10.70;99.90;;;;;;4997434;23;20657;-94
2023/12/12 08:10:50;;;;;;;3.63;1.25;;;10.60;99.90;;;;;;4997388;23;20591;-94
2023/12/12 08:12:51;;;;;;;1.60;0.85;;;10.80;99.90;;;;;;4974183;23;20167;-94
2023/12/12 08:14:55;;;;;;;7.68;2.05;;;10.70;99.90;;;;;;4973716;23;20179;-94
2023/12/12 08:16:57;;;;;;;1.75;1.10;;;10.80;99.90;;;;;;4974016;23;20187;-95
2023/12/12 08:18:57;;;;;;;3.53;1.30;;;10.80;99.90;;;;;;4973911;23;20192;-95
2023/12/12 08:20:59;;;;;;;6.32;2.05;;;10.90;99.90;;;;;;4974252;23;20188;-94
2023/12/12 08:23:00;;;;;;;1.55;1.15;;;10.80;99.90;;;;;;4975238;23;20152;-95
2023/12/12 08:25:01;;;;;;;2.72;1.52;;;10.60;99.90;;;;;;4998693;23;20183;-94
2023/12/12 08:27:02;;;;;;;4.43;1.60;;;10.60;99.90;;;;;;4975121;23;20239;-95
2023/12/12 08:29:03;;;;;;;3.85;1.42;;;10.80;99.90;;;;;;4975219;23;20152;-93
2023/12/12 08:31:05;;;;;;;5.43;1.95;;;10.90;99.90;;;;;;4975216;23;20149;-94
2023/12/12 08:33:06;;;;;;;3.13;1.40;;;10.90;99.90;;;;;;4975189;23;20192;-94
2023/12/12 08:35:07;;;;;;;2.40;1.33;;;11.10;99.90;;;;;;4999049;23;20556;-93
2023/12/12 08:37:08;;;;;;;2.40;1.40;;;11.10;99.90;;;;;;5004683;23;20177;-94
2023/12/12 08:39:09;;;;;;;2.65;1.63;;;11.10;99.90;;;;;;4981816;23;20161;-93
2023/12/12 08:41:10;;;;;;;5.22;2.35;;;11.10;99.90;;;;;;4976161;23;20171;-92
2023/12/12 08:43:11;;;;;;;3.05;1.50;;;11.10;99.90;;;;;;4975493;23;20145;-94
2023/12/12 08:45:11;;;;;;;3.70;1.50;;;11.20;99.90;;;;;;4975033;23;20308;-92
2023/12/12 08:47:12;;;;;;;3.30;1.63;;;11.30;99.90;;;;;;4978074;23;20595;-92
2023/12/12 08:49:13;;;;;;;4.72;1.83;;;11.30;99.90;;;;;;5001049;23;20231;-94
2023/12/12 08:51:14;;;;;;;4.80;1.75;;;11.30;99.90;;;;;;5000283;23;20155;-93
2023/12/12 08:53:15;;;;;;;4.72;1.45;;;11.40;99.90;;;;;;4979479;23;20579;-95
2023/12/12 08:55:16;;;;;;;4.47;1.85;;;11.40;99.90;;;;;;4980132;23;20176;-96
2023/12/12 08:57:17;;;;;;;4.07;1.80;;;11.50;99.90;;;;;;4977584;23;20168;-94
2023/12/12 08:59:21;;;;;;;2.90;1.70;;;11.50;99.90;;;;;;4999362;23;20503;-92
2023/12/12 09:01:22;;;;;;;1.98;1.35;;;11.50;99.90;;;;;;4976666;23;20193;-92
2023/12/12 09:03:23;;;;;;;4.10;1.58;;;11.70;99.90;;;;;;4998759;23;20152;-93
2023/12/12 09:05:24;;;;;;;2.75;1.30;;;11.60;99.90;;;;;;4998480;23;20184;-93
2023/12/12 09:07:24;;;;;;;4.97;1.50;;;11.80;99.90;;;;;;4998544;23;20155;-92
2023/12/12 09:09:27;;;;;;;4.80;1.80;;;11.80;99.90;;;;;;4975016;23;20180;-91
2023/12/12 09:11:28;;;;;;;2.92;1.50;;;11.90;99.90;;;;;;4998298;23;20591;-91
2023/12/12 09:13:29;;;;;;;2.50;1.45;;;12.00;99.90;;;;;;4998470;23;20187;-91
2023/12/12 09:15:31;;;;;;;2.50;1.40;;;12.00;99.90;;;;;;4974770;23;20194;-91
2023/12/12 09:17:32;;;;;;;4.65;1.67;;;12.00;99.90;;;;;;4975253;23;20247;-92
2023/12/12 09:19:33;;;;;;;2.17;1.30;;;11.70;99.90;;;;;;4975400;23;20152;-92
2023/12/12 09:21:34;;;;;;;3.53;1.13;;;11.50;99.90;;;;;;4974865;23;20216;-93
2023/12/12 09:23:39;;;;;;;3.33;1.35;;;11.30;99.90;;;;;;4974678;23;20153;-93
2023/12/12 09:25:40;;;;;;;1.92;0.88;;;11.40;99.90;;;;;;4974636;23;20183;-92
2023/12/12 09:27:41;;;;;;;2.70;1.42;;;11.50;99.90;;;;;;4998535;23;20152;-93
2023/12/12 09:29:42;;;;;;;1.83;0.70;;;11.50;99.90;;;;;;4974950;23;20168;-94
2023/12/12 09:31:43;;;;;;;2.65;1.23;;;11.50;99.90;;;;;;4975387;23;20274;-93
2023/12/12 09:33:44;;;;;;;3.63;1.17;;;11.40;99.90;;;;;;4998014;23;20290;-92
2023/12/12 09:35:44;;;;;;;3.10;1.27;;;11.40;99.90;;;;;;4975132;23;20176;-91
2023/12/12 09:37:45;;;;;;;3.53;1.73;;;11.20;99.90;;;;;;4975087;23;20167;-92
2023/12/12 09:39:46;;;;;;;6.75;1.67;;;11.10;99.90;;;;;;4975758;23;20157;-92
2023/12/12 09:41:50;;;;;;;4.05;2.00;;;11.20;99.90;;;;;;4998560;23;20175;-93
2023/12/12 09:43:51;;;;;;;5.78;1.65;;;11.20;99.90;;;;;;4998415;23;20178;-92
2023/12/12 09:45:56;;;;;;;3.08;1.42;;;11.10;99.90;;;;;;4974641;23;20639;-92
2023/12/12 09:47:57;;;;;;;7.30;1.27;;;11.20;99.90;;;;;;4974703;23;20148;-93
2023/12/12 09:49:58;;;;;;;2.97;1.42;;;11.10;99.90;;;;;;4998234;23;20155;-93
2023/12/12 09:52:01;;;;;;;2.00;1.05;;;11.10;99.90;;;;;;4974719;23;20160;-92
2023/12/12 09:54:06;;;;;;;4.13;1.60;;;11.00;99.90;;;;;;4974585;23;20306;-93
2023/12/12 09:56:09;;;;;;;2.22;1.23;;;11.00;99.90;;;;;;4998189;23;20152;-92
2023/12/12 09:58:10;;;;;;;4.47;1.40;;;10.90;99.90;;;;;;4974795;23;20201;-91
2023/12/12 10:00:12;;;;;;;2.72;1.42;;;10.90;99.90;;;;;;4997964;23;20151;-92
2023/12/12 10:02:23;;;;;;;6.43;1.45;;;10.90;99.90;;;;;;4974366;23;20167;-91
2023/12/12 10:04:25;;;;;;;3.22;1.88;;;10.90;99.90;;;;;;5021490;23;20541;-92
2023/12/12 10:06:28;;;;;;;5.35;2.30;;;11.00;99.90;;;;;;4997780;23;20156;-91
2023/12/12 10:08:29;;;;;;;2.80;1.63;;;11.00;99.90;;;;;;4974637;23;20155;-93
2023/12/12 10:10:30;;;;;;;3.85;2.03;;;11.00;99.90;;;;;;4998129;23;20161;-91
2023/12/12 10:12:31;;;;;;;2.17;1.50;;;11.10;99.90;;;;;;4974551;23;20664;-94
2023/12/12 10:14:41;;;;;;;3.45;1.60;;;11.10;99.90;;;;;;4997728;23;20203;-93
2023/12/12 10:16:42;;;;;;;4.70;1.88;;;11.10;99.90;;;;;;4998272;23;20582;-92
2023/12/12 10:18:46;;;;;;;3.33;2.00;;;11.20;99.90;;;;;;4974226;23;20165;-93
2023/12/12 10:20:47;;;;;;;4.35;1.98;;;11.20;99.90;;;;;;4974596;23;20152;-92
2023/12/12 10:22:48;;;;;;;4.38;2.22;;;11.50;99.90;;;;;;4974286;23;20163;-90
2023/12/12 10:24:52;;;;;;;3.78;2.05;;;11.50;99.90;;;;;;4974236;23;20176;-91
2023/12/12 10:26:53;;;;;;;3.28;1.55;;;11.70;99.90;;;;;;4974559;23;20234;-93
2023/12/12 10:28:54;;;;;;;5.35;2.05;;;11.70;99.90;;;;;;4974308;23;20156;-92
2023/12/12 10:30:55;;;;;;;4.68;2.15;;;11.90;99.90;;;;;;4997804;23;20165;-92
2023/12/12 10:32:56;;;;;;;3.83;1.40;;;12.00;99.90;;;;;;4974325;23;20259;-92